Bhaktapur, Nepal
Current Conditions -  °F | °C
As of 1:50 PM on Saturday 01 Nov 2014 (Local Time) from VNKT Reporting Station
Few Clouds Few Clouds  
Wind Chill: 73°   Ceiling: Unl
Heat Index: 73°   Visibility: 4mi
Dew Point: 50°   Wind: 9mph
Humidity: 44%   Direction: 280°W
Pressure: 30.06"   Gusts: NA
Location:  27.67°N, 85.43°E
Report Text: VNKT 010850Z 28008KT 7000 FEW025 23/10 Q1018 NOSIG
Loading
Personal Weather Stations






























Interactive Weather Map
Tropical Storm Tracking
New forecast layout! Learn more

10-Day Weather Forecast

Advertisements
Track Severe Weather on mobile